createdAt,value
2022-12-08T00:01:15.555Z,4.63
2022-12-08T00:03:42.859Z,4.43
2022-12-08T00:06:50.310Z,5.50
2022-12-08T00:09:25.825Z,5.00
2022-12-08T00:11:56.116Z,5.30
2022-12-08T00:14:25.758Z,5.45
2022-12-08T00:16:53.232Z,5.53
2022-12-08T00:19:20.579Z,4.40
2022-12-08T00:21:47.587Z,4.72
2022-12-08T00:24:14.321Z,5.20
2022-12-08T00:26:41.110Z,5.68
2022-12-08T00:29:10.925Z,4.57
2022-12-08T00:31:41.437Z,4.93
2022-12-08T00:34:08.399Z,5.30
2022-12-08T00:36:35.293Z,4.50
2022-12-08T00:39:02.276Z,4.72
2022-12-08T00:41:47.690Z,4.85
2022-12-08T00:44:18.969Z,4.70
2022-12-08T00:46:46.679Z,4.90
2022-12-08T00:49:13.874Z,4.63
2022-12-08T00:51:40.904Z,4.93
2022-12-08T00:54:08.165Z,4.97
2022-12-08T00:56:35.448Z,4.68
2022-12-08T00:59:04.605Z,4.43
2022-12-08T01:01:32.059Z,4.47
2022-12-08T01:03:58.943Z,5.03
2022-12-08T01:06:25.655Z,4.10
2022-12-08T01:08:52.389Z,4.78
2022-12-08T01:11:19.811Z,3.88
2022-12-08T01:13:47.079Z,5.32
2022-12-08T01:16:22.403Z,4.90
2022-12-08T01:18:49.786Z,4.90
2022-12-08T01:21:17.679Z,4.15
2022-12-08T01:23:44.841Z,4.43
2022-12-08T01:26:14.692Z,4.80
2022-12-08T01:28:49.745Z,4.57
2022-12-08T01:31:18.937Z,4.53
2022-12-08T01:33:46.390Z,5.45
2022-12-08T01:36:19.269Z,4.90
2022-12-08T01:38:46.137Z,5.10
2022-12-08T01:41:16.985Z,5.18
2022-12-08T01:43:57.658Z,5.22
2022-12-08T01:46:25.433Z,4.88
2022-12-08T01:48:56.830Z,5.15
2022-12-08T01:51:23.843Z,5.80
2022-12-08T01:53:50.821Z,5.00
2022-12-08T01:56:29.559Z,4.65
2022-12-08T01:58:56.915Z,5.22
2022-12-08T02:01:23.841Z,5.45
2022-12-08T02:03:58.880Z,5.50
2022-12-08T02:06:28.504Z,5.07
2022-12-08T02:08:56.163Z,5.75
2022-12-08T02:11:23.195Z,4.93
2022-12-08T02:13:51.915Z,5.35
2022-12-08T02:16:36.962Z,6.95
2022-12-08T02:19:41.013Z,5.50
2022-12-08T02:22:42.975Z,4.85
2022-12-08T02:25:24.919Z,5.60
2022-12-08T02:28:07.522Z,5.43
2022-12-08T02:30:34.331Z,5.53
2022-12-08T02:33:03.952Z,5.93
2022-12-08T02:35:49.594Z,5.50
2022-12-08T02:38:53.683Z,5.22
2022-12-08T02:41:38.656Z,5.47
2022-12-08T02:44:17.151Z,5.03
2022-12-08T02:46:50.889Z,5.57
2022-12-08T02:49:17.679Z,4.40
2022-12-08T02:51:44.414Z,5.10
2022-12-08T02:54:11.847Z,5.65
2022-12-08T02:56:50.087Z,5.72
2022-12-08T02:59:50.731Z,5.55
2022-12-08T03:02:54.443Z,5.75
2022-12-08T03:05:39.264Z,4.30
2022-12-08T03:08:13.232Z,5.25
2022-12-08T03:11:10.567Z,6.25
2022-12-08T03:13:50.567Z,5.93
2022-12-08T03:16:22.817Z,6.63
2022-12-08T03:18:54.972Z,5.68
2022-12-08T03:21:22.992Z,5.78
2022-12-08T03:23:53.599Z,5.60
2022-12-08T03:26:31.125Z,6.28
2022-12-08T03:28:58.435Z,7.97
2022-12-08T03:31:28.897Z,6.10
2022-12-08T03:33:58.616Z,5.75
2022-12-08T03:36:26.552Z,6.25
2022-12-08T03:38:54.588Z,4.43
2022-12-08T03:41:22.570Z,4.80
2022-12-08T03:43:58.371Z,6.28
2022-12-08T03:48:53.205Z,5.50
2022-12-08T03:51:20.410Z,6.22
2022-12-08T03:53:47.574Z,5.85
2022-12-08T03:56:27.238Z,5.90
2022-12-08T03:58:54.891Z,5.53
2022-12-08T04:01:22.656Z,5.05
2022-12-08T04:03:49.944Z,5.75
2022-12-08T04:06:17.619Z,7.45
2022-12-08T04:08:44.450Z,5.78
2022-12-08T04:11:11.716Z,6.45
2022-12-08T04:13:40.148Z,5.82
2022-12-08T04:16:07.943Z,7.10
2022-12-08T04:18:35.820Z,6.03
2022-12-08T04:21:02.563Z,6.55
2022-12-08T04:23:29.261Z,5.90
2022-12-08T04:25:56.006Z,6.30
2022-12-08T04:28:22.955Z,5.85
2022-12-08T04:30:50.160Z,5.93
2022-12-08T04:33:17.565Z,6.07
2022-12-08T04:35:44.819Z,5.28
2022-12-08T04:38:12.055Z,5.78
2022-12-08T04:40:39.507Z,6.18
2022-12-08T04:43:06.561Z,7.13
2022-12-08T04:45:33.764Z,5.72
2022-12-08T04:48:01.746Z,6.07
2022-12-08T04:50:28.794Z,5.95
2022-12-08T04:52:55.519Z,5.68
2022-12-08T04:55:22.393Z,5.95
2022-12-08T04:57:49.221Z,5.90
2022-12-08T05:00:17.072Z,5.90
2022-12-08T05:02:43.962Z,5.90
2022-12-08T05:05:10.775Z,5.57
2022-12-08T05:07:37.963Z,6.82
2022-12-08T05:10:05.630Z,5.50
2022-12-08T05:12:33.196Z,5.20
2022-12-08T05:14:59.998Z,5.28
2022-12-08T05:17:26.764Z,6.10
2022-12-08T05:19:53.694Z,6.40
2022-12-08T05:22:20.430Z,5.82
2022-12-08T05:24:47.879Z,5.07
2022-12-08T05:27:15.052Z,5.45
2022-12-08T05:29:42.410Z,5.53
2022-12-08T05:32:09.337Z,6.15
2022-12-08T05:34:36.085Z,5.88
2022-12-08T05:37:02.830Z,5.43
2022-12-08T05:39:29.564Z,4.97
2022-12-08T05:41:56.317Z,5.90
2022-12-08T05:44:23.099Z,4.88
2022-12-08T05:46:49.886Z,5.25
2022-12-08T05:49:16.700Z,5.15
2022-12-08T05:51:43.748Z,4.95
2022-12-08T05:54:10.526Z,5.30
2022-12-08T05:56:37.263Z,4.95
2022-12-08T05:59:07.123Z,4.13
2022-12-08T06:01:34.310Z,4.90
2022-12-08T06:04:02.688Z,5.30
2022-12-08T06:06:30.603Z,4.95
2022-12-08T06:08:57.379Z,5.68
2022-12-08T06:11:26.473Z,5.20
2022-12-08T06:13:53.816Z,5.45
2022-12-08T06:16:20.554Z,4.88
2022-12-08T06:18:47.354Z,5.40
2022-12-08T06:21:16.063Z,4.65
2022-12-08T06:23:43.293Z,5.45
2022-12-08T06:26:13.965Z,5.22
2022-12-08T06:28:42.092Z,5.55
2022-12-08T06:31:11.978Z,5.30
2022-12-08T06:33:39.033Z,4.55
2022-12-08T06:36:07.018Z,6.05
2022-12-08T06:38:37.106Z,5.85
2022-12-08T06:41:06.808Z,5.78
2022-12-08T06:43:33.709Z,5.13
2022-12-08T06:46:01.469Z,5.30
2022-12-08T06:48:28.288Z,5.47
2022-12-08T06:50:55.074Z,5.32
2022-12-08T06:53:21.933Z,5.57
2022-12-08T06:56:01.110Z,5.13
2022-12-08T06:58:30.593Z,5.78
2022-12-08T07:00:57.497Z,4.57
2022-12-08T07:03:24.431Z,4.65
2022-12-08T07:06:00.245Z,4.95
2022-12-08T07:08:30.444Z,4.70
2022-12-08T07:10:57.281Z,5.38
2022-12-08T07:13:24.134Z,5.30
2022-12-08T07:15:50.945Z,4.55
2022-12-08T07:18:17.680Z,5.30
2022-12-08T07:20:44.427Z,4.68
2022-12-08T07:23:11.720Z,5.43
2022-12-08T07:25:38.448Z,4.68
2022-12-08T07:28:08.936Z,5.07
2022-12-08T07:30:35.958Z,4.57
2022-12-08T07:33:05.642Z,5.10
2022-12-08T07:35:34.837Z,5.20
2022-12-08T07:38:02.562Z,4.50
2022-12-08T07:40:29.425Z,3.88
2022-12-08T07:42:56.650Z,5.10
2022-12-08T07:45:29.796Z,4.28
2022-12-08T07:47:58.116Z,4.25
2022-12-08T07:50:24.945Z,3.90
2022-12-08T07:52:51.659Z,4.38
2022-12-08T07:55:18.436Z,4.50
2022-12-08T07:57:45.209Z,4.57
2022-12-08T08:00:12.680Z,4.90
2022-12-08T08:02:40.183Z,4.63
2022-12-08T08:05:07.643Z,3.92
2022-12-08T08:07:34.768Z,4.50
2022-12-08T08:10:01.815Z,4.45
2022-12-08T08:12:31.776Z,5.15
2022-12-08T08:15:00.214Z,5.15
2022-12-08T08:17:27.330Z,5.65
2022-12-08T08:19:54.341Z,4.80
2022-12-08T08:22:21.070Z,5.30
2022-12-08T08:24:47.884Z,5.10
2022-12-08T08:27:14.691Z,4.78
2022-12-08T08:29:41.459Z,4.97
2022-12-08T08:32:08.222Z,4.63
2022-12-08T08:34:36.367Z,4.93
2022-12-08T08:37:03.280Z,5.07
2022-12-08T08:39:31.873Z,5.57
2022-12-08T08:41:58.843Z,4.20
2022-12-08T08:44:25.673Z,5.03
2022-12-08T08:46:52.525Z,5.38
2022-12-08T08:49:20.082Z,4.32
2022-12-08T08:51:47.383Z,4.95
2022-12-08T08:54:14.248Z,4.88
2022-12-08T08:56:41.007Z,4.80
2022-12-08T08:59:08.158Z,5.57
2022-12-08T09:01:34.950Z,4.80
2022-12-08T09:04:01.893Z,5.20
2022-12-08T09:06:29.068Z,5.35
2022-12-08T09:08:56.156Z,5.00
2022-12-08T09:11:25.917Z,5.45
2022-12-08T09:13:54.034Z,6.55
2022-12-08T09:16:21.858Z,5.28
2022-12-08T09:18:49.563Z,5.07
2022-12-08T09:21:22.823Z,4.22
2022-12-08T09:23:50.941Z,4.88
2022-12-08T09:26:17.789Z,5.00
2022-12-08T09:28:46.727Z,5.00
2022-12-08T09:31:16.570Z,5.53
2022-12-08T09:33:45.765Z,4.47
2022-12-08T09:36:12.626Z,4.85
2022-12-08T09:38:40.477Z,5.28
2022-12-08T09:41:38.765Z,5.10
2022-12-08T09:44:32.862Z,4.50
2022-12-08T09:47:02.263Z,5.17
2022-12-08T09:49:42.718Z,4.72
2022-12-08T09:52:44.485Z,5.22
2022-12-08T09:55:23.641Z,5.35
2022-12-08T09:57:59.042Z,6.18
2022-12-08T10:00:25.896Z,6.32
2022-12-08T10:02:52.826Z,6.15
2022-12-08T10:05:21.349Z,6.25
2022-12-08T10:08:12.606Z,5.55
2022-12-08T10:11:00.092Z,5.80
2022-12-08T10:13:42.309Z,5.90
2022-12-08T10:16:24.182Z,5.28
2022-12-08T10:19:14.600Z,5.60
2022-12-08T10:21:42.020Z,5.68
2022-12-08T10:24:43.428Z,3.97
2022-12-08T10:27:13.464Z,4.78
2022-12-08T10:29:41.224Z,5.65
2022-12-08T10:32:19.247Z,5.72
2022-12-08T10:35:00.838Z,4.90
2022-12-08T10:37:27.657Z,5.10
2022-12-08T10:40:12.067Z,6.70
2022-12-08T10:42:52.335Z,6.00
2022-12-08T10:45:41.620Z,5.95
2022-12-08T10:48:19.142Z,5.47
2022-12-08T10:50:50.213Z,5.28
2022-12-08T10:53:32.069Z,5.40
2022-12-08T10:58:43.640Z,5.82
2022-12-08T11:03:43.921Z,4.70
2022-12-08T11:06:37.611Z,4.53
2022-12-08T11:09:17.812Z,4.38
2022-12-08T11:11:50.092Z,5.55
2022-12-08T11:14:22.870Z,5.43
2022-12-08T11:16:52.959Z,4.93
2022-12-08T11:19:21.084Z,4.82
2022-12-08T11:21:48.205Z,5.35
2022-12-08T11:24:14.884Z,5.97
2022-12-08T11:26:49.846Z,5.72
2022-12-08T11:29:17.494Z,4.53
2022-12-08T11:31:53.897Z,4.80
2022-12-08T11:34:37.248Z,6.07
2022-12-08T11:37:16.807Z,5.22
2022-12-08T11:39:49.531Z,6.30
2022-12-08T11:42:20.575Z,5.20
2022-12-08T11:45:07.764Z,5.75
2022-12-08T11:47:42.572Z,4.20
2022-12-08T11:50:24.247Z,5.35
2022-12-08T11:52:51.889Z,4.65
2022-12-08T11:55:42.698Z,5.15
2022-12-08T11:58:15.090Z,5.65
2022-12-08T12:00:41.921Z,5.47
2022-12-08T12:03:35.893Z,4.50
2022-12-08T12:06:46.411Z,6.18
2022-12-08T12:09:08.208Z,5.45
2022-12-08T12:12:05.916Z,6.13
2022-12-08T12:15:00.034Z,5.97
2022-12-08T12:17:41.004Z,5.60
2022-12-08T12:20:30.790Z,5.53
2022-12-08T12:23:35.835Z,5.70
2022-12-08T12:26:07.143Z,6.45
2022-12-08T12:28:46.412Z,5.78
2022-12-08T12:31:17.295Z,5.05
2022-12-08T12:33:46.817Z,5.78
2022-12-08T12:36:15.036Z,6.05
2022-12-08T12:39:01.333Z,5.97
2022-12-08T12:41:44.176Z,5.93
2022-12-08T12:44:13.763Z,6.53
2022-12-08T12:46:46.522Z,5.95
2022-12-08T12:49:39.379Z,6.20
2022-12-08T12:52:15.357Z,5.13
2022-12-08T12:54:43.834Z,5.78
2022-12-08T12:57:10.510Z,5.38
2022-12-08T12:59:55.931Z,5.95
2022-12-08T13:02:27.558Z,5.72
2022-12-08T13:04:58.531Z,5.93
2022-12-08T13:07:50.912Z,5.93
2022-12-08T13:10:30.024Z,6.13
2022-12-08T13:13:16.382Z,6.28
2022-12-08T13:16:15.425Z,5.20
2022-12-08T13:18:49.776Z,6.72
2022-12-08T13:21:20.031Z,6.15
2022-12-08T13:23:48.487Z,5.60
2022-12-08T13:26:23.644Z,5.90
2022-12-08T13:28:59.911Z,5.93
2022-12-08T13:31:50.901Z,6.03
2022-12-08T13:34:25.924Z,6.38
2022-12-08T13:36:55.651Z,6.05
2022-12-08T13:39:32.473Z,6.10
2022-12-08T13:42:05.807Z,5.93
2022-12-08T13:45:21.274Z,5.75
2022-12-08T13:57:03.949Z,6.75
2022-12-08T13:59:34.963Z,5.53
2022-12-08T14:02:18.197Z,6.05
2022-12-08T14:05:17.054Z,6.80
2022-12-08T14:07:34.626Z,6.22
2022-12-08T14:10:03.817Z,6.63
2022-12-08T14:12:31.570Z,6.88
2022-12-08T14:15:03.705Z,6.20
2022-12-08T14:17:32.003Z,8.07
2022-12-08T14:20:33.805Z,6.32
2022-12-08T14:23:09.343Z,6.45
2022-12-08T14:25:36.544Z,6.38
2022-12-08T14:28:05.049Z,7.28
2022-12-08T14:30:33.349Z,7.25
2022-12-08T14:33:03.389Z,7.85
2022-12-08T14:35:33.834Z,7.43
2022-12-08T14:38:03.568Z,5.95
2022-12-08T14:40:45.159Z,7.65
2022-12-08T14:43:16.545Z,6.35
2022-12-08T14:45:43.242Z,6.18
2022-12-08T14:48:36.367Z,6.82
2022-12-08T14:51:06.404Z,7.53
2022-12-08T14:53:36.639Z,7.85
2022-12-08T14:56:08.833Z,7.47
2022-12-08T14:58:35.611Z,7.10
2022-12-08T15:01:05.282Z,8.75
2022-12-08T15:03:32.903Z,6.38
2022-12-08T15:06:08.491Z,7.10
2022-12-08T15:08:51.418Z,7.97
2022-12-08T15:11:18.104Z,7.75
2022-12-08T15:13:46.944Z,7.93
2022-12-08T15:16:40.740Z,8.10
2022-12-08T15:19:28.421Z,8.05
2022-12-08T15:22:08.865Z,8.25
2022-12-08T15:24:35.776Z,8.15
2022-12-08T15:27:03.973Z,7.70
2022-12-08T15:29:31.247Z,8.90
2022-12-08T15:32:00.938Z,8.50
2022-12-08T15:34:27.936Z,8.00
2022-12-08T15:36:55.501Z,7.78
2022-12-08T15:39:30.503Z,8.77
2022-12-08T15:41:57.871Z,8.98
2022-12-08T15:44:24.689Z,7.95
2022-12-08T15:46:53.278Z,7.90
2022-12-08T15:49:22.353Z,8.80
2022-12-08T15:51:50.024Z,8.77
2022-12-08T15:54:17.162Z,9.10
2022-12-08T15:57:18.151Z,8.73
2022-12-08T15:59:40.136Z,8.48
2022-12-08T16:02:07.023Z,8.55
2022-12-08T16:07:27.577Z,8.48
2022-12-08T16:09:55.348Z,9.10
2022-12-08T16:13:48.109Z,8.00
2022-12-08T16:18:27.236Z,8.75
2022-12-08T16:21:22.732Z,9.20
2022-12-08T16:23:43.619Z,9.27
2022-12-08T16:26:28.604Z,8.98
2022-12-08T16:29:04.337Z,9.57
2022-12-08T16:31:31.884Z,8.52
2022-12-08T16:33:58.804Z,9.88
2022-12-08T16:36:25.688Z,9.55
2022-12-08T16:38:52.586Z,9.75
2022-12-08T16:41:38.168Z,9.38
2022-12-08T16:44:06.545Z,9.65
2022-12-08T16:46:34.897Z,10.63
2022-12-08T16:49:04.940Z,8.48
2022-12-08T16:51:31.720Z,9.43
2022-12-08T16:53:58.694Z,10.40
2022-12-08T16:56:32.795Z,9.40
2022-12-08T16:59:01.848Z,10.57
2022-12-08T17:01:28.765Z,8.88
2022-12-08T17:04:22.983Z,10.40
2022-12-08T17:06:42.502Z,10.43
2022-12-08T17:09:09.339Z,10.73
2022-12-08T17:11:42.708Z,9.60
2022-12-08T17:14:11.717Z,10.10
2022-12-08T17:16:38.704Z,10.65
2022-12-08T17:19:05.596Z,11.88
2022-12-08T17:21:32.377Z,10.80
2022-12-08T17:23:59.209Z,10.45
2022-12-08T17:26:26.030Z,11.18
2022-12-08T17:29:00.582Z,11.02
2022-12-08T17:31:30.271Z,11.25
2022-12-08T17:34:02.960Z,10.65
2022-12-08T17:36:30.120Z,10.68
2022-12-08T17:38:59.064Z,10.90
2022-12-08T17:41:25.940Z,11.13
2022-12-08T17:43:52.889Z,9.50
2022-12-08T17:46:20.755Z,10.75
2022-12-08T17:48:48.027Z,10.63
2022-12-08T17:51:15.560Z,10.35
2022-12-08T17:53:42.468Z,11.80
2022-12-08T17:56:18.395Z,11.18
2022-12-08T17:58:47.551Z,10.40
2022-12-08T18:01:18.021Z,10.23
2022-12-08T18:03:44.792Z,11.43
2022-12-08T18:06:12.611Z,10.15
2022-12-08T18:08:40.280Z,10.65
2022-12-08T18:11:13.094Z,10.90
2022-12-08T18:13:40.064Z,11.02
2022-12-08T18:16:07.042Z,13.15
2022-12-08T18:18:33.783Z,12.57
2022-12-08T18:21:00.618Z,12.73
2022-12-08T18:23:27.578Z,12.32
2022-12-08T18:25:54.488Z,11.35
2022-12-08T18:28:21.350Z,11.75
2022-12-08T18:30:48.157Z,11.20
2022-12-08T18:33:14.966Z,11.75
2022-12-08T18:35:41.769Z,11.55
2022-12-08T18:38:08.536Z,12.63
2022-12-08T18:40:35.396Z,10.90
2022-12-08T18:43:02.177Z,12.35
2022-12-08T18:45:28.929Z,11.77
2022-12-08T18:47:58.377Z,13.43
2022-12-08T18:50:25.196Z,11.98
2022-12-08T18:52:52.046Z,13.32
2022-12-08T18:55:18.819Z,11.60
2022-12-08T18:57:46.115Z,13.18
2022-12-08T19:00:18.285Z,13.50
2022-12-08T19:02:45.443Z,12.15
2022-12-08T19:05:13.951Z,12.68
2022-12-08T19:07:42.725Z,13.25
2022-12-08T19:10:10.591Z,14.05
2022-12-08T19:12:37.501Z,13.00
2022-12-08T19:15:05.425Z,13.25
2022-12-08T19:17:32.535Z,12.32
2022-12-08T19:19:59.600Z,12.48
2022-12-08T19:22:26.446Z,12.02
2022-12-08T19:24:53.480Z,13.15
2022-12-08T19:27:20.387Z,13.48
2022-12-08T19:29:47.338Z,12.68
2022-12-08T19:32:14.323Z,11.38
2022-12-08T19:34:41.420Z,13.20
2022-12-08T19:37:10.352Z,13.45
2022-12-08T19:39:55.449Z,12.77
2022-12-08T19:42:40.681Z,13.68
2022-12-08T19:45:19.939Z,13.93
2022-12-08T19:47:47.817Z,13.32
2022-12-08T19:50:34.922Z,14.40
2022-12-08T19:53:04.425Z,13.23
2022-12-08T19:55:31.739Z,13.60
2022-12-08T19:57:58.534Z,13.32
2022-12-08T20:00:25.911Z,12.75
2022-12-08T20:02:52.784Z,15.02
2022-12-08T20:05:19.716Z,13.13
2022-12-08T20:07:46.751Z,16.08
2022-12-08T20:10:19.943Z,15.35
2022-12-08T20:12:46.694Z,14.80
2022-12-08T20:15:14.888Z,15.07
2022-12-08T20:17:43.359Z,17.08
2022-12-08T20:20:12.210Z,14.60
2022-12-08T20:22:39.122Z,15.75
2022-12-08T20:25:06.317Z,17.00
2022-12-08T20:27:33.556Z,15.43
2022-12-08T20:30:00.466Z,15.30
2022-12-08T20:32:27.465Z,16.23
2022-12-08T20:34:54.143Z,15.05
2022-12-08T20:37:21.050Z,15.02
2022-12-08T20:39:47.851Z,15.57
2022-12-08T20:42:14.732Z,15.07
2022-12-08T20:44:44.377Z,15.77
2022-12-08T20:47:13.010Z,16.10
2022-12-08T20:49:40.019Z,15.77
2022-12-08T20:52:07.688Z,16.05
2022-12-08T20:54:35.236Z,15.85
2022-12-08T20:57:02.114Z,17.45
2022-12-08T20:59:29.189Z,16.73
2022-12-08T21:01:56.374Z,15.88
2022-12-08T21:04:24.028Z,16.77
2022-12-08T21:06:51.242Z,14.70
2022-12-08T21:09:18.571Z,16.50
2022-12-08T21:11:45.804Z,15.70
2022-12-08T21:14:12.638Z,16.27
2022-12-08T21:16:39.726Z,15.18
2022-12-08T21:19:06.728Z,15.90
2022-12-08T21:21:33.911Z,17.00
2022-12-08T21:24:01.212Z,15.18
2022-12-08T21:26:28.788Z,17.42
2022-12-08T21:28:58.947Z,24.58
2022-12-08T21:31:27.041Z,25.83
2022-12-08T21:33:55.247Z,26.77
2022-12-08T21:36:22.919Z,30.73
2022-12-08T21:38:50.345Z,26.88
2022-12-08T21:41:39.950Z,35.13
2022-12-08T21:44:09.912Z,37.70
2022-12-08T21:46:36.870Z,36.33
2022-12-08T21:49:04.462Z,49.47
2022-12-08T21:51:31.440Z,64.50
2022-12-08T21:53:58.336Z,51.90
2022-12-08T21:56:25.217Z,57.47
2022-12-08T21:58:52.290Z,51.28
2022-12-08T22:01:20.570Z,51.10
2022-12-08T22:03:47.549Z,43.35
2022-12-08T22:06:14.864Z,41.30
2022-12-08T22:08:42.314Z,35.70
2022-12-08T22:11:10.695Z,29.52
2022-12-08T22:13:40.137Z,20.10
2022-12-08T22:16:10.567Z,20.45
2022-12-08T22:18:37.699Z,22.40
2022-12-08T22:21:18.025Z,18.33
2022-12-08T22:23:45.292Z,16.25
2022-12-08T22:26:12.701Z,15.18
2022-12-08T22:28:41.588Z,14.95
2022-12-08T22:31:21.088Z,15.15
2022-12-08T22:33:49.418Z,14.15
2022-12-08T22:36:19.519Z,15.88
2022-12-08T22:38:46.905Z,14.13
2022-12-08T22:41:14.395Z,14.73
2022-12-08T22:43:41.560Z,14.88
2022-12-08T22:46:16.604Z,14.38
2022-12-08T22:48:43.881Z,14.85
2022-12-08T22:51:11.322Z,14.48
2022-12-08T22:53:38.289Z,15.88
2022-12-08T22:56:06.619Z,14.18
2022-12-08T22:58:34.303Z,15.15
2022-12-08T23:01:01.030Z,15.32
2022-12-08T23:03:28.010Z,16.13
2022-12-08T23:05:54.889Z,14.55
2022-12-08T23:08:21.922Z,16.42
2022-12-08T23:10:51.934Z,16.52
2022-12-08T23:13:19.627Z,15.50
2022-12-08T23:15:46.449Z,14.05
2022-12-08T23:18:19.301Z,13.43
2022-12-08T23:20:47.588Z,17.00
2022-12-08T23:23:15.472Z,16.40
2022-12-08T23:25:43.358Z,16.45
2022-12-08T23:28:11.374Z,15.13
2022-12-08T23:30:41.386Z,16.05
2022-12-08T23:33:08.432Z,15.32
2022-12-08T23:35:35.379Z,14.10
2022-12-08T23:38:02.502Z,15.35
2022-12-08T23:40:29.352Z,16.13
2022-12-08T23:42:56.047Z,16.48
2022-12-08T23:45:22.783Z,15.55
2022-12-08T23:47:49.613Z,13.60
2022-12-08T23:50:16.517Z,16.48
2022-12-08T23:52:43.596Z,15.35
2022-12-08T23:55:11.173Z,15.23
2022-12-08T23:57:38.613Z,16.45
